sensor_id;sensor_type;location;lat;lon;timestamp;P1;durP1;ratioP1;P2;durP2;ratioP2
27899;SDS011;15243;50.726;7.080;2023-07-20T00:00:43;11.25;;;3.85;;
27899;SDS011;15243;50.726;7.080;2023-07-20T00:03:27;13.05;;;3.78;;
27899;SDS011;15243;50.726;7.080;2023-07-20T00:05:54;8.35;;;3.38;;
27899;SDS011;15243;50.726;7.080;2023-07-20T00:08:21;8.15;;;3.53;;
27899;SDS011;15243;50.726;7.080;2023-07-20T00:10:48;11.65;;;3.75;;
27899;SDS011;15243;50.726;7.080;2023-07-20T00:13:15;11.55;;;3.20;;
27899;SDS011;15243;50.726;7.080;2023-07-20T00:15:42;10.38;;;3.72;;
27899;SDS011;15243;50.726;7.080;2023-07-20T00:18:09;16.27;;;4.25;;
27899;SDS011;15243;50.726;7.080;2023-07-20T00:20:36;7.03;;;3.13;;
27899;SDS011;15243;50.726;7.080;2023-07-20T00:23:03;6.90;;;3.63;;
27899;SDS011;15243;50.726;7.080;2023-07-20T00:25:30;6.93;;;3.63;;
27899;SDS011;15243;50.726;7.080;2023-07-20T00:27:58;9.52;;;3.72;;
27899;SDS011;15243;50.726;7.080;2023-07-20T00:30:25;11.65;;;3.67;;
27899;SDS011;15243;50.726;7.080;2023-07-20T00:32:52;9.90;;;3.70;;
27899;SDS011;15243;50.726;7.080;2023-07-20T00:35:19;9.40;;;3.95;;
27899;SDS011;15243;50.726;7.080;2023-07-20T00:37:46;9.38;;;4.38;;
27899;SDS011;15243;50.726;7.080;2023-07-20T00:40:14;8.82;;;3.97;;
27899;SDS011;15243;50.726;7.080;2023-07-20T00:42:41;8.13;;;3.95;;
27899;SDS011;15243;50.726;7.080;2023-07-20T00:45:08;8.15;;;3.67;;
27899;SDS011;15243;50.726;7.080;2023-07-20T00:47:35;8.13;;;4.07;;
27899;SDS011;15243;50.726;7.080;2023-07-20T00:50:03;9.18;;;3.80;;
27899;SDS011;15243;50.726;7.080;2023-07-20T00:52:31;11.48;;;4.10;;
27899;SDS011;15243;50.726;7.080;2023-07-20T00:54:59;9.18;;;4.20;;
27899;SDS011;15243;50.726;7.080;2023-07-20T00:57:27;6.55;;;3.53;;
27899;SDS011;15243;50.726;7.080;2023-07-20T00:59:54;7.55;;;3.80;;
27899;SDS011;15243;50.726;7.080;2023-07-20T01:02:21;10.20;;;3.92;;
27899;SDS011;15243;50.726;7.080;2023-07-20T01:04:48;7.40;;;3.90;;
27899;SDS011;15243;50.726;7.080;2023-07-20T01:09:52;7.47;;;4.15;;
27899;SDS011;15243;50.726;7.080;2023-07-20T01:12:46;10.70;;;4.00;;
27899;SDS011;15243;50.726;7.080;2023-07-20T01:15:14;8.20;;;3.47;;
27899;SDS011;15243;50.726;7.080;2023-07-20T01:17:41;6.72;;;3.58;;
27899;SDS011;15243;50.726;7.080;2023-07-20T01:20:08;7.68;;;3.42;;
27899;SDS011;15243;50.726;7.080;2023-07-20T01:31:21;11.18;;;3.83;;
27899;SDS011;15243;50.726;7.080;2023-07-20T01:33:53;6.38;;;3.90;;
27899;SDS011;15243;50.726;7.080;2023-07-20T01:36:23;6.93;;;3.85;;
27899;SDS011;15243;50.726;7.080;2023-07-20T01:38:52;9.40;;;4.13;;
27899;SDS011;15243;50.726;7.080;2023-07-20T01:41:20;9.23;;;3.90;;
27899;SDS011;15243;50.726;7.080;2023-07-20T01:43:48;7.15;;;3.67;;
27899;SDS011;15243;50.726;7.080;2023-07-20T01:46:15;10.80;;;3.83;;
27899;SDS011;15243;50.726;7.080;2023-07-20T01:48:42;8.45;;;4.07;;
27899;SDS011;15243;50.726;7.080;2023-07-20T01:51:10;9.05;;;3.92;;
27899;SDS011;15243;50.726;7.080;2023-07-20T01:53:38;8.98;;;3.88;;
27899;SDS011;15243;50.726;7.080;2023-07-20T01:56:05;5.88;;;3.47;;
27899;SDS011;15243;50.726;7.080;2023-07-20T01:58:32;8.73;;;4.20;;
27899;SDS011;15243;50.726;7.080;2023-07-20T02:01:00;6.80;;;3.78;;
27899;SDS011;15243;50.726;7.080;2023-07-20T02:03:28;8.02;;;4.25;;
27899;SDS011;15243;50.726;7.080;2023-07-20T02:05:55;5.20;;;3.35;;
27899;SDS011;15243;50.726;7.080;2023-07-20T02:08:24;9.65;;;3.72;;
27899;SDS011;15243;50.726;7.080;2023-07-20T02:10:51;7.35;;;4.00;;
27899;SDS011;15243;50.726;7.080;2023-07-20T02:13:19;5.05;;;3.55;;
27899;SDS011;15243;50.726;7.080;2023-07-20T02:15:46;5.32;;;3.75;;
27899;SDS011;15243;50.726;7.080;2023-07-20T02:18:15;8.68;;;3.97;;
27899;SDS011;15243;50.726;7.080;2023-07-20T02:20:43;8.70;;;4.00;;
27899;SDS011;15243;50.726;7.080;2023-07-20T02:23:10;8.40;;;3.50;;
27899;SDS011;15243;50.726;7.080;2023-07-20T02:25:38;6.28;;;3.80;;
27899;SDS011;15243;50.726;7.080;2023-07-20T02:28:07;7.60;;;3.67;;
27899;SDS011;15243;50.726;7.080;2023-07-20T02:30:37;7.90;;;3.90;;
27899;SDS011;15243;50.726;7.080;2023-07-20T02:33:05;7.38;;;3.45;;
27899;SDS011;15243;50.726;7.080;2023-07-20T02:35:33;7.95;;;3.78;;
27899;SDS011;15243;50.726;7.080;2023-07-20T02:38:00;8.07;;;3.97;;
27899;SDS011;15243;50.726;7.080;2023-07-20T02:40:27;9.32;;;3.53;;
27899;SDS011;15243;50.726;7.080;2023-07-20T02:42:54;5.20;;;3.25;;
27899;SDS011;15243;50.726;7.080;2023-07-20T02:45:21;8.65;;;3.80;;
27899;SDS011;15243;50.726;7.080;2023-07-20T02:47:48;7.25;;;3.55;;
27899;SDS011;15243;50.726;7.080;2023-07-20T02:50:15;7.43;;;4.07;;
27899;SDS011;15243;50.726;7.080;2023-07-20T02:52:43;6.38;;;4.40;;
27899;SDS011;15243;50.726;7.080;2023-07-20T02:55:10;7.55;;;3.88;;
27899;SDS011;15243;50.726;7.080;2023-07-20T02:57:37;7.28;;;3.60;;
27899;SDS011;15243;50.726;7.080;2023-07-20T03:00:04;12.77;;;3.97;;
27899;SDS011;15243;50.726;7.080;2023-07-20T03:02:32;9.35;;;4.00;;
27899;SDS011;15243;50.726;7.080;2023-07-20T03:05:00;8.73;;;3.90;;
27899;SDS011;15243;50.726;7.080;2023-07-20T03:07:29;7.95;;;3.88;;
27899;SDS011;15243;50.726;7.080;2023-07-20T03:09:56;10.95;;;4.00;;
27899;SDS011;15243;50.726;7.080;2023-07-20T03:12:23;10.02;;;4.30;;
27899;SDS011;15243;50.726;7.080;2023-07-20T03:14:50;9.13;;;4.57;;
27899;SDS011;15243;50.726;7.080;2023-07-20T03:17:18;9.85;;;4.15;;
27899;SDS011;15243;50.726;7.080;2023-07-20T03:19:47;9.05;;;3.67;;
27899;SDS011;15243;50.726;7.080;2023-07-20T03:22:14;7.97;;;3.42;;
27899;SDS011;15243;50.726;7.080;2023-07-20T03:24:41;7.38;;;3.55;;
27899;SDS011;15243;50.726;7.080;2023-07-20T03:27:08;8.23;;;3.65;;
27899;SDS011;15243;50.726;7.080;2023-07-20T03:29:35;7.90;;;3.92;;
27899;SDS011;15243;50.726;7.080;2023-07-20T03:32:03;9.32;;;4.45;;
27899;SDS011;15243;50.726;7.080;2023-07-20T03:34:30;8.73;;;4.03;;
27899;SDS011;15243;50.726;7.080;2023-07-20T03:36:57;11.30;;;4.53;;
27899;SDS011;15243;50.726;7.080;2023-07-20T03:39:25;10.02;;;4.00;;
27899;SDS011;15243;50.726;7.080;2023-07-20T03:41:53;9.93;;;4.13;;
27899;SDS011;15243;50.726;7.080;2023-07-20T03:44:20;8.32;;;4.35;;
27899;SDS011;15243;50.726;7.080;2023-07-20T03:46:47;9.05;;;4.05;;
27899;SDS011;15243;50.726;7.080;2023-07-20T03:49:14;11.23;;;4.15;;
27899;SDS011;15243;50.726;7.080;2023-07-20T03:51:41;11.32;;;4.03;;
27899;SDS011;15243;50.726;7.080;2023-07-20T03:54:08;8.95;;;3.78;;
27899;SDS011;15243;50.726;7.080;2023-07-20T03:56:36;7.65;;;3.67;;
27899;SDS011;15243;50.726;7.080;2023-07-20T03:59:03;10.60;;;3.85;;
27899;SDS011;15243;50.726;7.080;2023-07-20T04:01:31;9.15;;;3.63;;
27899;SDS011;15243;50.726;7.080;2023-07-20T04:04:06;6.47;;;3.88;;
27899;SDS011;15243;50.726;7.080;2023-07-20T04:06:34;7.63;;;3.63;;
27899;SDS011;15243;50.726;7.080;2023-07-20T04:09:02;10.00;;;3.70;;
27899;SDS011;15243;50.726;7.080;2023-07-20T04:11:29;7.32;;;3.80;;
27899;SDS011;15243;50.726;7.080;2023-07-20T04:13:56;6.30;;;3.55;;
27899;SDS011;15243;50.726;7.080;2023-07-20T04:16:23;6.70;;;3.20;;
27899;SDS011;15243;50.726;7.080;2023-07-20T04:18:51;7.47;;;3.65;;
27899;SDS011;15243;50.726;7.080;2023-07-20T04:21:18;9.50;;;3.95;;
27899;SDS011;15243;50.726;7.080;2023-07-20T04:23:45;5.72;;;3.25;;
27899;SDS011;15243;50.726;7.080;2023-07-20T04:26:12;7.90;;;3.20;;
27899;SDS011;15243;50.726;7.080;2023-07-20T04:28:41;8.93;;;3.13;;
27899;SDS011;15243;50.726;7.080;2023-07-20T04:31:14;11.65;;;3.60;;
27899;SDS011;15243;50.726;7.080;2023-07-20T04:33:42;7.15;;;2.75;;
27899;SDS011;15243;50.726;7.080;2023-07-20T04:36:09;9.75;;;3.42;;
27899;SDS011;15243;50.726;7.080;2023-07-20T04:38:36;11.40;;;4.18;;
27899;SDS011;15243;50.726;7.080;2023-07-20T04:41:03;6.90;;;3.30;;
27899;SDS011;15243;50.726;7.080;2023-07-20T04:43:30;7.70;;;3.20;;
27899;SDS011;15243;50.726;7.080;2023-07-20T04:45:57;7.78;;;3.00;;
27899;SDS011;15243;50.726;7.080;2023-07-20T04:48:24;8.25;;;3.45;;
27899;SDS011;15243;50.726;7.080;2023-07-20T04:50:52;7.32;;;3.42;;
27899;SDS011;15243;50.726;7.080;2023-07-20T04:53:19;7.20;;;3.53;;
27899;SDS011;15243;50.726;7.080;2023-07-20T04:55:49;8.82;;;3.60;;
27899;SDS011;15243;50.726;7.080;2023-07-20T04:58:19;9.85;;;3.55;;
27899;SDS011;15243;50.726;7.080;2023-07-20T05:00:48;9.88;;;3.78;;
27899;SDS011;15243;50.726;7.080;2023-07-20T05:03:15;7.05;;;3.10;;
27899;SDS011;15243;50.726;7.080;2023-07-20T05:05:43;9.63;;;2.92;;
27899;SDS011;15243;50.726;7.080;2023-07-20T05:08:14;8.63;;;3.78;;
27899;SDS011;15243;50.726;7.080;2023-07-20T05:10:41;10.90;;;3.63;;
27899;SDS011;15243;50.726;7.080;2023-07-20T05:13:08;9.23;;;3.67;;
27899;SDS011;15243;50.726;7.080;2023-07-20T05:15:35;10.20;;;3.90;;
27899;SDS011;15243;50.726;7.080;2023-07-20T05:18:02;7.93;;;3.78;;
27899;SDS011;15243;50.726;7.080;2023-07-20T05:20:29;11.85;;;3.97;;
27899;SDS011;15243;50.726;7.080;2023-07-20T05:22:58;7.20;;;3.70;;
27899;SDS011;15243;50.726;7.080;2023-07-20T05:25:26;7.53;;;3.83;;
27899;SDS011;15243;50.726;7.080;2023-07-20T05:27:56;7.15;;;3.78;;
27899;SDS011;15243;50.726;7.080;2023-07-20T05:30:23;12.10;;;4.57;;
27899;SDS011;15243;50.726;7.080;2023-07-20T05:32:51;16.80;;;4.57;;
27899;SDS011;15243;50.726;7.080;2023-07-20T05:35:21;10.73;;;4.70;;
27899;SDS011;15243;50.726;7.080;2023-07-20T05:37:49;11.02;;;4.32;;
27899;SDS011;15243;50.726;7.080;2023-07-20T05:40:16;8.95;;;4.95;;
27899;SDS011;15243;50.726;7.080;2023-07-20T05:42:45;7.13;;;4.43;;
27899;SDS011;15243;50.726;7.080;2023-07-20T05:45:14;8.68;;;4.55;;
27899;SDS011;15243;50.726;7.080;2023-07-20T05:47:41;12.30;;;5.85;;
27899;SDS011;15243;50.726;7.080;2023-07-20T05:50:09;10.75;;;6.75;;
27899;SDS011;15243;50.726;7.080;2023-07-20T05:52:37;19.55;;;6.93;;
27899;SDS011;15243;50.726;7.080;2023-07-20T05:55:05;15.77;;;6.68;;
27899;SDS011;15243;50.726;7.080;2023-07-20T05:57:33;15.75;;;6.80;;
27899;SDS011;15243;50.726;7.080;2023-07-20T06:00:02;17.48;;;7.80;;
27899;SDS011;15243;50.726;7.080;2023-07-20T06:02:30;12.65;;;7.30;;
27899;SDS011;15243;50.726;7.080;2023-07-20T06:04:59;18.98;;;7.95;;
27899;SDS011;15243;50.726;7.080;2023-07-20T06:07:26;16.92;;;8.18;;
27899;SDS011;15243;50.726;7.080;2023-07-20T06:09:53;24.00;;;8.35;;
27899;SDS011;15243;50.726;7.080;2023-07-20T06:12:20;15.20;;;6.65;;
27899;SDS011;15243;50.726;7.080;2023-07-20T06:14:47;14.68;;;8.52;;
27899;SDS011;15243;50.726;7.080;2023-07-20T06:17:14;17.95;;;7.68;;
27899;SDS011;15243;50.726;7.080;2023-07-20T06:19:41;15.65;;;7.20;;
27899;SDS011;15243;50.726;7.080;2023-07-20T06:22:08;14.57;;;7.45;;
27899;SDS011;15243;50.726;7.080;2023-07-20T06:24:36;14.35;;;6.57;;
27899;SDS011;15243;50.726;7.080;2023-07-20T06:27:03;18.98;;;6.85;;
27899;SDS011;15243;50.726;7.080;2023-07-20T06:29:32;13.52;;;6.60;;
27899;SDS011;15243;50.726;7.080;2023-07-20T06:31:59;18.95;;;6.90;;
27899;SDS011;15243;50.726;7.080;2023-07-20T06:34:26;12.73;;;6.28;;
27899;SDS011;15243;50.726;7.080;2023-07-20T06:36:53;13.88;;;6.65;;
27899;SDS011;15243;50.726;7.080;2023-07-20T06:39:19;14.68;;;7.13;;
27899;SDS011;15243;50.726;7.080;2023-07-20T06:41:50;18.95;;;6.93;;
27899;SDS011;15243;50.726;7.080;2023-07-20T06:44:21;14.23;;;6.38;;
27899;SDS011;15243;50.726;7.080;2023-07-20T06:46:48;18.30;;;6.55;;
27899;SDS011;15243;50.726;7.080;2023-07-20T06:49:24;17.13;;;6.78;;
27899;SDS011;15243;50.726;7.080;2023-07-20T06:51:52;15.18;;;6.70;;
27899;SDS011;15243;50.726;7.080;2023-07-20T06:54:20;13.70;;;6.15;;
27899;SDS011;15243;50.726;7.080;2023-07-20T06:56:49;12.95;;;6.20;;
27899;SDS011;15243;50.726;7.080;2023-07-20T06:59:36;12.55;;;6.05;;
27899;SDS011;15243;50.726;7.080;2023-07-20T07:02:07;13.80;;;6.57;;
27899;SDS011;15243;50.726;7.080;2023-07-20T07:04:40;12.13;;;5.93;;
27899;SDS011;15243;50.726;7.080;2023-07-20T07:07:08;11.43;;;6.13;;
27899;SDS011;15243;50.726;7.080;2023-07-20T07:09:35;9.73;;;6.10;;
27899;SDS011;15243;50.726;7.080;2023-07-20T07:12:03;15.68;;;5.50;;
27899;SDS011;15243;50.726;7.080;2023-07-20T07:14:30;13.48;;;6.25;;
27899;SDS011;15243;50.726;7.080;2023-07-20T07:16:58;13.35;;;5.75;;
27899;SDS011;15243;50.726;7.080;2023-07-20T07:19:30;12.75;;;5.50;;
27899;SDS011;15243;50.726;7.080;2023-07-20T07:21:57;13.82;;;6.15;;
27899;SDS011;15243;50.726;7.080;2023-07-20T07:24:26;18.00;;;6.35;;
27899;SDS011;15243;50.726;7.080;2023-07-20T07:26:55;14.20;;;6.07;;
27899;SDS011;15243;50.726;7.080;2023-07-20T07:29:22;15.27;;;5.50;;
27899;SDS011;15243;50.726;7.080;2023-07-20T07:31:49;16.10;;;7.18;;
27899;SDS011;15243;50.726;7.080;2023-07-20T07:34:16;12.90;;;7.20;;
27899;SDS011;15243;50.726;7.080;2023-07-20T07:36:44;14.95;;;6.80;;
27899;SDS011;15243;50.726;7.080;2023-07-20T07:39:11;13.27;;;6.65;;
27899;SDS011;15243;50.726;7.080;2023-07-20T07:41:41;12.60;;;7.00;;
27899;SDS011;15243;50.726;7.080;2023-07-20T07:44:08;11.82;;;6.15;;
27899;SDS011;15243;50.726;7.080;2023-07-20T07:46:35;15.63;;;6.80;;
27899;SDS011;15243;50.726;7.080;2023-07-20T07:49:02;11.60;;;5.40;;
27899;SDS011;15243;50.726;7.080;2023-07-20T07:51:29;13.63;;;5.75;;
27899;SDS011;15243;50.726;7.080;2023-07-20T07:53:56;10.50;;;5.88;;
27899;SDS011;15243;50.726;7.080;2023-07-20T07:56:23;13.82;;;6.07;;
27899;SDS011;15243;50.726;7.080;2023-07-20T07:58:51;9.73;;;5.22;;
27899;SDS011;15243;50.726;7.080;2023-07-20T08:01:18;11.93;;;5.70;;
27899;SDS011;15243;50.726;7.080;2023-07-20T08:03:45;9.88;;;4.70;;
27899;SDS011;15243;50.726;7.080;2023-07-20T08:06:14;8.88;;;4.28;;
27899;SDS011;15243;50.726;7.080;2023-07-20T08:08:41;10.25;;;4.57;;
27899;SDS011;15243;50.726;7.080;2023-07-20T08:11:09;11.90;;;4.72;;
27899;SDS011;15243;50.726;7.080;2023-07-20T08:13:37;9.10;;;4.75;;
27899;SDS011;15243;50.726;7.080;2023-07-20T08:16:04;11.10;;;4.85;;
27899;SDS011;15243;50.726;7.080;2023-07-20T08:18:31;11.90;;;4.90;;
27899;SDS011;15243;50.726;7.080;2023-07-20T08:20:58;8.60;;;4.30;;
27899;SDS011;15243;50.726;7.080;2023-07-20T08:23:25;7.47;;;3.33;;
27899;SDS011;15243;50.726;7.080;2023-07-20T08:25:54;9.95;;;4.00;;
27899;SDS011;15243;50.726;7.080;2023-07-20T08:28:21;8.35;;;4.15;;
27899;SDS011;15243;50.726;7.080;2023-07-20T08:30:48;9.52;;;3.63;;
27899;SDS011;15243;50.726;7.080;2023-07-20T08:33:16;8.25;;;3.42;;
27899;SDS011;15243;50.726;7.080;2023-07-20T08:35:46;4.30;;;2.67;;
27899;SDS011;15243;50.726;7.080;2023-07-20T08:38:14;7.03;;;2.70;;
27899;SDS011;15243;50.726;7.080;2023-07-20T08:40:41;5.38;;;2.28;;
27899;SDS011;15243;50.726;7.080;2023-07-20T08:43:10;2.58;;;2.20;;
27899;SDS011;15243;50.726;7.080;2023-07-20T08:45:39;7.30;;;2.78;;
27899;SDS011;15243;50.726;7.080;2023-07-20T08:48:07;4.63;;;2.83;;
27899;SDS011;15243;50.726;7.080;2023-07-20T08:50:36;5.13;;;2.50;;
27899;SDS011;15243;50.726;7.080;2023-07-20T08:53:04;6.03;;;2.80;;
27899;SDS011;15243;50.726;7.080;2023-07-20T08:55:32;5.47;;;2.20;;
27899;SDS011;15243;50.726;7.080;2023-07-20T08:58:00;5.35;;;2.85;;
27899;SDS011;15243;50.726;7.080;2023-07-20T09:00:31;7.80;;;3.10;;
27899;SDS011;15243;50.726;7.080;2023-07-20T09:02:58;10.40;;;2.90;;
27899;SDS011;15243;50.726;7.080;2023-07-20T09:05:29;6.88;;;2.88;;
27899;SDS011;15243;50.726;7.080;2023-07-20T09:07:58;6.22;;;2.25;;
27899;SDS011;15243;50.726;7.080;2023-07-20T09:10:26;5.60;;;2.40;;
27899;SDS011;15243;50.726;7.080;2023-07-20T09:12:53;4.15;;;2.33;;
27899;SDS011;15243;50.726;7.080;2023-07-20T09:15:21;3.03;;;2.33;;
27899;SDS011;15243;50.726;7.080;2023-07-20T09:17:49;5.53;;;2.30;;
27899;SDS011;15243;50.726;7.080;2023-07-20T09:20:17;5.75;;;1.90;;
27899;SDS011;15243;50.726;7.080;2023-07-20T09:22:50;5.57;;;2.20;;
27899;SDS011;15243;50.726;7.080;2023-07-20T09:25:19;2.78;;;1.88;;
27899;SDS011;15243;50.726;7.080;2023-07-20T09:27:49;3.30;;;1.70;;
27899;SDS011;15243;50.726;7.080;2023-07-20T09:30:18;5.65;;;2.55;;
27899;SDS011;15243;50.726;7.080;2023-07-20T09:32:49;5.85;;;2.10;;
27899;SDS011;15243;50.726;7.080;2023-07-20T09:35:21;4.07;;;2.10;;
27899;SDS011;15243;50.726;7.080;2023-07-20T09:37:58;4.45;;;1.90;;
27899;SDS011;15243;50.726;7.080;2023-07-20T09:40:29;5.40;;;2.25;;
27899;SDS011;15243;50.726;7.080;2023-07-20T09:42:59;3.70;;;2.15;;
27899;SDS011;15243;50.726;7.080;2023-07-20T09:45:32;3.47;;;1.90;;
27899;SDS011;15243;50.726;7.080;2023-07-20T09:48:03;4.68;;;1.75;;
27899;SDS011;15243;50.726;7.080;2023-07-20T09:50:41;6.75;;;2.38;;
27899;SDS011;15243;50.726;7.080;2023-07-20T09:53:11;3.33;;;1.80;;
27899;SDS011;15243;50.726;7.080;2023-07-20T09:55:41;4.28;;;1.98;;
27899;SDS011;15243;50.726;7.080;2023-07-20T09:58:10;4.72;;;1.65;;
27899;SDS011;15243;50.726;7.080;2023-07-20T10:00:38;4.53;;;2.28;;
27899;SDS011;15243;50.726;7.080;2023-07-20T10:03:09;4.75;;;2.17;;
27899;SDS011;15243;50.726;7.080;2023-07-20T10:05:51;3.10;;;1.80;;
27899;SDS011;15243;50.726;7.080;2023-07-20T10:08:23;2.97;;;1.90;;
27899;SDS011;15243;50.726;7.080;2023-07-20T10:10:54;2.97;;;1.50;;
27899;SDS011;15243;50.726;7.080;2023-07-20T10:13:27;3.55;;;1.73;;
27899;SDS011;15243;50.726;7.080;2023-07-20T10:16:01;5.00;;;1.80;;
27899;SDS011;15243;50.726;7.080;2023-07-20T10:21:04;2.00;;;1.80;;
27899;SDS011;15243;50.726;7.080;2023-07-20T10:23:37;3.35;;;1.77;;
27899;SDS011;15243;50.726;7.080;2023-07-20T10:26:05;6.22;;;1.77;;
27899;SDS011;15243;50.726;7.080;2023-07-20T10:28:32;3.50;;;1.90;;
27899;SDS011;15243;50.726;7.080;2023-07-20T10:31:01;3.08;;;1.77;;
27899;SDS011;15243;50.726;7.080;2023-07-20T10:33:28;2.60;;;2.00;;
27899;SDS011;15243;50.726;7.080;2023-07-20T10:35:57;4.80;;;2.13;;
27899;SDS011;15243;50.726;7.080;2023-07-20T10:41:20;4.03;;;2.00;;
27899;SDS011;15243;50.726;7.080;2023-07-20T10:44:01;3.20;;;1.77;;
27899;SDS011;15243;50.726;7.080;2023-07-20T10:49:02;3.75;;;1.95;;
27899;SDS011;15243;50.726;7.080;2023-07-20T10:51:38;6.80;;;1.30;;
27899;SDS011;15243;50.726;7.080;2023-07-20T10:56:45;3.42;;;1.73;;
27899;SDS011;15243;50.726;7.080;2023-07-20T10:59:18;3.35;;;1.70;;
27899;SDS011;15243;50.726;7.080;2023-07-20T11:01:48;3.03;;;1.67;;
27899;SDS011;15243;50.726;7.080;2023-07-20T11:04:16;5.18;;;1.60;;
27899;SDS011;15243;50.726;7.080;2023-07-20T11:06:48;4.32;;;1.58;;
27899;SDS011;15243;50.726;7.080;2023-07-20T11:09:22;5.43;;;2.13;;
27899;SDS011;15243;50.726;7.080;2023-07-20T11:12:08;3.55;;;1.92;;
27899;SDS011;15243;50.726;7.080;2023-07-20T11:14:57;4.40;;;1.83;;
27899;SDS011;15243;50.726;7.080;2023-07-20T11:17:31;2.80;;;1.60;;
27899;SDS011;15243;50.726;7.080;2023-07-20T11:19:59;5.00;;;1.88;;
27899;SDS011;15243;50.726;7.080;2023-07-20T11:22:33;4.28;;;1.48;;
27899;SDS011;15243;50.726;7.080;2023-07-20T11:25:01;4.50;;;1.60;;
27899;SDS011;15243;50.726;7.080;2023-07-20T11:27:28;4.03;;;1.70;;
27899;SDS011;15243;50.726;7.080;2023-07-20T11:29:55;6.93;;;2.03;;
27899;SDS011;15243;50.726;7.080;2023-07-20T11:32:23;4.22;;;1.73;;
27899;SDS011;15243;50.726;7.080;2023-07-20T11:34:51;4.57;;;1.75;;
27899;SDS011;15243;50.726;7.080;2023-07-20T11:37:18;1.90;;;1.40;;
27899;SDS011;15243;50.726;7.080;2023-07-20T11:39:45;2.78;;;1.50;;
27899;SDS011;15243;50.726;7.080;2023-07-20T11:42:13;7.22;;;2.15;;
27899;SDS011;15243;50.726;7.080;2023-07-20T11:45:02;3.30;;;1.33;;
27899;SDS011;15243;50.726;7.080;2023-07-20T11:47:32;3.40;;;1.48;;
27899;SDS011;15243;50.726;7.080;2023-07-20T11:50:03;3.70;;;1.25;;
27899;SDS011;15243;50.726;7.080;2023-07-20T11:52:30;4.00;;;1.48;;
27899;SDS011;15243;50.726;7.080;2023-07-20T11:54:58;3.50;;;1.73;;
27899;SDS011;15243;50.726;7.080;2023-07-20T11:57:25;8.65;;;2.20;;
27899;SDS011;15243;50.726;7.080;2023-07-20T11:59:53;3.67;;;1.75;;
27899;SDS011;15243;50.726;7.080;2023-07-20T12:02:29;4.93;;;1.88;;
27899;SDS011;15243;50.726;7.080;2023-07-20T12:04:56;5.00;;;1.80;;
27899;SDS011;15243;50.726;7.080;2023-07-20T12:07:25;3.88;;;1.75;;
27899;SDS011;15243;50.726;7.080;2023-07-20T12:12:34;2.83;;;1.58;;
27899;SDS011;15243;50.726;7.080;2023-07-20T12:15:14;4.53;;;1.52;;
27899;SDS011;15243;50.726;7.080;2023-07-20T12:17:44;2.88;;;1.50;;
27899;SDS011;15243;50.726;7.080;2023-07-20T12:20:12;4.15;;;1.20;;
27899;SDS011;15243;50.726;7.080;2023-07-20T12:22:40;5.13;;;1.40;;
27899;SDS011;15243;50.726;7.080;2023-07-20T12:25:09;3.63;;;1.40;;
27899;SDS011;15243;50.726;7.080;2023-07-20T12:27:36;4.50;;;1.45;;
27899;SDS011;15243;50.726;7.080;2023-07-20T12:30:06;6.90;;;1.67;;
27899;SDS011;15243;50.726;7.080;2023-07-20T12:32:34;2.83;;;1.48;;
27899;SDS011;15243;50.726;7.080;2023-07-20T12:35:01;1.83;;;1.23;;
27899;SDS011;15243;50.726;7.080;2023-07-20T12:37:29;2.55;;;1.40;;
27899;SDS011;15243;50.726;7.080;2023-07-20T12:39:56;4.60;;;1.30;;
27899;SDS011;15243;50.726;7.080;2023-07-20T12:42:23;3.78;;;1.30;;
27899;SDS011;15243;50.726;7.080;2023-07-20T12:44:50;3.05;;;1.15;;
27899;SDS011;15243;50.726;7.080;2023-07-20T12:47:18;3.65;;;1.20;;
27899;SDS011;15243;50.726;7.080;2023-07-20T12:49:45;2.78;;;1.52;;
27899;SDS011;15243;50.726;7.080;2023-07-20T12:52:13;6.97;;;1.33;;
27899;SDS011;15243;50.726;7.080;2023-07-20T12:54:40;3.95;;;1.35;;
27899;SDS011;15243;50.726;7.080;2023-07-20T12:57:07;2.85;;;1.08;;
27899;SDS011;15243;50.726;7.080;2023-07-20T12:59:36;4.15;;;1.33;;
27899;SDS011;15243;50.726;7.080;2023-07-20T13:02:04;1.58;;;0.90;;
27899;SDS011;15243;50.726;7.080;2023-07-20T13:04:31;2.05;;;1.20;;
27899;SDS011;15243;50.726;7.080;2023-07-20T13:06:58;2.25;;;1.05;;
27899;SDS011;15243;50.726;7.080;2023-07-20T13:09:26;2.33;;;1.52;;
27899;SDS011;15243;50.726;7.080;2023-07-20T13:11:53;4.70;;;1.40;;
27899;SDS011;15243;50.726;7.080;2023-07-20T13:14:20;2.65;;;1.40;;
27899;SDS011;15243;50.726;7.080;2023-07-20T13:16:47;3.90;;;1.00;;
27899;SDS011;15243;50.726;7.080;2023-07-20T13:19:14;4.57;;;1.20;;
27899;SDS011;15243;50.726;7.080;2023-07-20T13:21:41;3.13;;;1.50;;
27899;SDS011;15243;50.726;7.080;2023-07-20T13:24:08;4.55;;;1.30;;
27899;SDS011;15243;50.726;7.080;2023-07-20T13:26:35;4.75;;;1.33;;
27899;SDS011;15243;50.726;7.080;2023-07-20T13:29:02;4.88;;;1.17;;
27899;SDS011;15243;50.726;7.080;2023-07-20T13:31:29;2.17;;;1.15;;
27899;SDS011;15243;50.726;7.080;2023-07-20T13:34:00;2.10;;;1.30;;
27899;SDS011;15243;50.726;7.080;2023-07-20T13:36:29;2.72;;;1.23;;
27899;SDS011;15243;50.726;7.080;2023-07-20T13:38:56;5.55;;;1.50;;
27899;SDS011;15243;50.726;7.080;2023-07-20T13:41:25;5.10;;;1.33;;
27899;SDS011;15243;50.726;7.080;2023-07-20T13:43:53;1.73;;;1.15;;
27899;SDS011;15243;50.726;7.080;2023-07-20T13:46:23;5.10;;;1.38;;
27899;SDS011;15243;50.726;7.080;2023-07-20T13:48:53;2.60;;;1.10;;
27899;SDS011;15243;50.726;7.080;2023-07-20T13:51:23;2.40;;;1.00;;
27899;SDS011;15243;50.726;7.080;2023-07-20T13:53:53;2.75;;;1.20;;
27899;SDS011;15243;50.726;7.080;2023-07-20T13:56:20;6.32;;;1.40;;
27899;SDS011;15243;50.726;7.080;2023-07-20T13:58:47;7.80;;;1.35;;
27899;SDS011;15243;50.726;7.080;2023-07-20T14:01:16;4.90;;;1.30;;
27899;SDS011;15243;50.726;7.080;2023-07-20T14:03:47;5.80;;;1.33;;
27899;SDS011;15243;50.726;7.080;2023-07-20T14:06:14;2.17;;;1.48;;
27899;SDS011;15243;50.726;7.080;2023-07-20T14:08:44;3.72;;;1.20;;
27899;SDS011;15243;50.726;7.080;2023-07-20T14:11:15;4.78;;;1.38;;
27899;SDS011;15243;50.726;7.080;2023-07-20T14:13:46;9.15;;;1.38;;
27899;SDS011;15243;50.726;7.080;2023-07-20T14:16:13;4.95;;;0.93;;
27899;SDS011;15243;50.726;7.080;2023-07-20T14:18:40;3.35;;;1.02;;
27899;SDS011;15243;50.726;7.080;2023-07-20T14:21:07;2.63;;;1.20;;
27899;SDS011;15243;50.726;7.080;2023-07-20T14:23:35;1.75;;;0.93;;
27899;SDS011;15243;50.726;7.080;2023-07-20T14:26:03;2.15;;;1.10;;
27899;SDS011;15243;50.726;7.080;2023-07-20T14:28:47;2.00;;;1.20;;
27899;SDS011;15243;50.726;7.080;2023-07-20T14:31:14;3.80;;;0.88;;
27899;SDS011;15243;50.726;7.080;2023-07-20T14:33:41;3.33;;;1.13;;
27899;SDS011;15243;50.726;7.080;2023-07-20T14:36:08;5.07;;;1.33;;
27899;SDS011;15243;50.726;7.080;2023-07-20T14:38:36;2.22;;;1.17;;
27899;SDS011;15243;50.726;7.080;2023-07-20T14:41:03;1.45;;;1.00;;
27899;SDS011;15243;50.726;7.080;2023-07-20T14:43:33;2.58;;;1.20;;
27899;SDS011;15243;50.726;7.080;2023-07-20T14:46:00;4.15;;;1.45;;
27899;SDS011;15243;50.726;7.080;2023-07-20T14:48:27;6.25;;;1.20;;
27899;SDS011;15243;50.726;7.080;2023-07-20T14:50:55;3.70;;;1.23;;
27899;SDS011;15243;50.726;7.080;2023-07-20T14:53:30;5.82;;;1.40;;
27899;SDS011;15243;50.726;7.080;2023-07-20T14:56:01;4.15;;;1.00;;
27899;SDS011;15243;50.726;7.080;2023-07-20T14:58:29;3.45;;;1.20;;
27899;SDS011;15243;50.726;7.080;2023-07-20T15:00:59;1.95;;;1.20;;
27899;SDS011;15243;50.726;7.080;2023-07-20T15:03:27;1.70;;;1.27;;
27899;SDS011;15243;50.726;7.080;2023-07-20T15:05:54;3.83;;;1.23;;
27899;SDS011;15243;50.726;7.080;2023-07-20T15:08:22;1.50;;;0.90;;
27899;SDS011;15243;50.726;7.080;2023-07-20T15:10:50;3.67;;;1.20;;
27899;SDS011;15243;50.726;7.080;2023-07-20T15:13:17;2.00;;;1.00;;
27899;SDS011;15243;50.726;7.080;2023-07-20T15:15:44;4.13;;;1.10;;
27899;SDS011;15243;50.726;7.080;2023-07-20T15:18:11;1.35;;;0.88;;